2016 Cux-Wetter.de -Die Nutzung der Wetterdaten nur mit ausdrcklicher Genehmigung
Wetterdaten: Woche 27.08.18 - 02.09.18 (KW35)
Datum Zeit Temp. A. Feuchte A. Luftdruck Regen Wind Richtung Sonnenschein Solar Taupunkt Windchill Windben
27.08.2018 00:00 14,2 C 71 % 1008,6 hPa 0,0 l/m 6,3 km/h (2 Bft) SO 0,00 h 0 W/m 8,9 C 14,0 C 12,7 km/h (3 Bft)
27.08.2018 01:00 13,8 C 75 % 1007,8 hPa 0,4 l/m 6,4 km/h (2 Bft) SO 0,00 h 0 W/m 9,4 C 13,5 C 12,7 km/h (3 Bft)
27.08.2018 02:00 12,7 C 82 % 1006,7 hPa 0,0 l/m 6,2 km/h (2 Bft) SO 0,00 h 0 W/m 9,7 C 12,4 C 12,0 km/h (2 Bft)
27.08.2018 03:00 13,0 C 82 % 1006,3 hPa 0,0 l/m 9,9 km/h (2 Bft) S 0,00 h 0 W/m 9,9 C 11,1 C 17,6 km/h (3 Bft)
27.08.2018 04:00 13,0 C 86 % 1005,0 hPa 0,0 l/m 12,0 km/h (2 Bft) S-SO 0,00 h 0 W/m 10,7 C 10,0 C 22,3 km/h (4 Bft)
27.08.2018 05:00 12,4 C 90 % 1003,9 hPa 0,8 l/m 13,3 km/h (3 Bft) S-SO 0,00 h 0 W/m 10,8 C 8,7 C 24,2 km/h (4 Bft)
27.08.2018 06:00 12,1 C 93 % 1003,3 hPa 0,6 l/m 12,8 km/h (3 Bft) S 0,00 h 0 W/m 10,9 C 8,6 C 22,7 km/h (4 Bft)
27.08.2018 07:00 12,3 C 94 % 1003,1 hPa 0,0 l/m 12,7 km/h (3 Bft) S 0,00 h 10 W/m 11,4 C 8,9 C 23,5 km/h (4 Bft)
27.08.2018 08:00 12,9 C 94 % 1002,9 hPa 0,4 l/m 13,1 km/h (3 Bft) S 0,00 h 38 W/m 12,0 C 9,4 C 23,3 km/h (4 Bft)
27.08.2018 09:00 13,9 C 95 % 1002,8 hPa 0,2 l/m 14,6 km/h (3 Bft) S 0,00 h 52 W/m 13,1 C 10,0 C 27,0 km/h (4 Bft)
27.08.2018 10:00 14,9 C 96 % 1003,2 hPa 0,2 l/m 16,5 km/h (3 Bft) SW 0,00 h 115 W/m 14,2 C 10,6 C 29,2 km/h (5 Bft)
27.08.2018 11:00 16,8 C 94 % 1003,6 hPa 0,0 l/m 17,3 km/h (3 Bft) SW 0,50 h 407 W/m 15,8 C 12,7 C 29,1 km/h (5 Bft)
27.08.2018 12:00 17,3 C 89 % 1004,2 hPa 0,4 l/m 15,7 km/h (3 Bft) W-SW 0,05 h 172 W/m 15,6 C 13,9 C 26,7 km/h (4 Bft)
27.08.2018 13:00 18,3 C 82 % 1004,8 hPa 0,0 l/m 13,4 km/h (3 Bft) W-SW 0,10 h 301 W/m 15,2 C 15,6 C 25,3 km/h (4 Bft)
27.08.2018 14:00 18,1 C 85 % 1005,7 hPa 0,2 l/m 12,3 km/h (2 Bft) SW 0,10 h 255 W/m 15,5 C 15,8 C 21,5 km/h (4 Bft)
27.08.2018 15:00 18,8 C 76 % 1006,4 hPa 0,0 l/m 14,7 km/h (3 Bft) W 0,05 h 258 W/m 14,4 C 15,9 C 27,3 km/h (5 Bft)
27.08.2018 16:00 18,5 C 73 % 1007,2 hPa 0,0 l/m 17,3 km/h (3 Bft) W-SW 0,35 h 289 W/m 13,5 C 14,9 C 30,7 km/h (5 Bft)
27.08.2018 17:00 18,8 C 72 % 1007,9 hPa 0,0 l/m 16,5 km/h (3 Bft) W-SW 0,75 h 283 W/m 13,6 C 15,4 C 29,6 km/h (5 Bft)
27.08.2018 18:00 18,4 C 72 % 1008,7 hPa 0,0 l/m 15,2 km/h (3 Bft) W 0,65 h 159 W/m 13,3 C 15,4 C 27,8 km/h (5 Bft)
27.08.2018 19:00 17,7 C 76 % 1009,4 hPa 0,0 l/m 14,2 km/h (3 Bft) W 0,00 h 35 W/m 13,4 C 14,8 C 26,0 km/h (4 Bft)
27.08.2018 20:00 16,9 C 80 % 1010,1 hPa 0,0 l/m 11,7 km/h (2 Bft) SW 0,00 h 9 W/m 13,5 C 14,7 C 21,6 km/h (4 Bft)
27.08.2018 21:00 16,5 C 83 % 1010,7 hPa 0,0 l/m 13,9 km/h (3 Bft) SW 0,00 h 0 W/m 13,6 C 13,4 C 23,8 km/h (4 Bft)
27.08.2018 22:00 16,3 C 84 % 1011,3 hPa 0,0 l/m 15,0 km/h (3 Bft) SW 0,00 h 0 W/m 13,6 C 12,8 C 24,0 km/h (4 Bft)
27.08.2018 23:00 16,2 C 86 % 1011,9 hPa 0,0 l/m 13,3 km/h (3 Bft) SW 0,00 h 0 W/m 13,8 C 13,2 C 21,9 km/h (4 Bft)
28.08.2018 00:00 16,2 C 87 % 1012,3 hPa 0,0 l/m 13,4 km/h (3 Bft) SW 0,00 h 0 W/m 14,0 C 13,2 C 23,2 km/h (4 Bft)
28.08.2018 01:00 16,3 C 87 % 1012,9 hPa 0,0 l/m 12,2 km/h (2 Bft) SW 0,00 h 0 W/m 14,1 C 13,7 C 21,3 km/h (4 Bft)
28.08.2018 02:00 16,2 C 89 % 1013,3 hPa 0,2 l/m 9,9 km/h (2 Bft) SW 0,00 h 0 W/m 14,3 C 14,6 C 17,5 km/h (3 Bft)
28.08.2018 03:00 16,0 C 90 % 1013,9 hPa 0,2 l/m 9,4 km/h (2 Bft) W-SW 0,00 h 0 W/m 14,4 C 14,5 C 17,7 km/h (3 Bft)
28.08.2018 04:00 15,9 C 90 % 1014,2 hPa 0,0 l/m 5,9 km/h (2 Bft) W-SW 0,00 h 0 W/m 14,3 C 15,6 C 11,6 km/h (2 Bft)
28.08.2018 05:00 16,0 C 91 % 1014,5 hPa 0,6 l/m 5,4 km/h (1 Bft) SW 0,00 h 0 W/m 14,6 C 15,8 C 12,3 km/h (2 Bft)
28.08.2018 06:00 15,8 C 92 % 1014,9 hPa 0,0 l/m 8,7 km/h (2 Bft) SW 0,00 h 6 W/m 14,6 C 14,6 C 16,0 km/h (3 Bft)
28.08.2018 07:00 15,8 C 93 % 1015,5 hPa 0,0 l/m 9,1 km/h (2 Bft) SW 0,00 h 26 W/m 14,6 C 14,4 C 15,9 km/h (3 Bft)
28.08.2018 08:00 16,0 C 93 % 1015,9 hPa 0,0 l/m 10,4 km/h (2 Bft) SW 0,00 h 64 W/m 14,8 C 14,2 C 18,3 km/h (3 Bft)
28.08.2018 09:00 17,1 C 90 % 1016,4 hPa 0,0 l/m 11,9 km/h (2 Bft) SW 0,25 h 188 W/m 15,4 C 14,8 C 19,8 km/h (3 Bft)
28.08.2018 10:00 18,1 C 86 % 1016,9 hPa 0,0 l/m 10,9 km/h (2 Bft) SW 0,10 h 244 W/m 15,7 C 16,3 C 19,9 km/h (4 Bft)
28.08.2018 11:00 18,5 C 83 % 1017,3 hPa 0,0 l/m 10,9 km/h (2 Bft) SW 0,00 h 227 W/m 15,6 C 16,7 C 19,5 km/h (3 Bft)
28.08.2018 12:00 18,6 C 83 % 1017,6 hPa 0,0 l/m 11,6 km/h (2 Bft) SW 0,00 h 236 W/m 15,6 C 16,6 C 19,4 km/h (3 Bft)
28.08.2018 13:00 19,1 C 80 % 1018,0 hPa 0,0 l/m 10,1 km/h (2 Bft) W-SW 0,05 h 315 W/m 15,6 C 17,6 C 18,4 km/h (3 Bft)
28.08.2018 14:00 20,3 C 74 % 1018,1 hPa 0,0 l/m 8,2 km/h (2 Bft) W 0,90 h 510 W/m 15,5 C 19,5 C 15,9 km/h (3 Bft)
28.08.2018 15:00 20,2 C 75 % 1018,2 hPa 0,0 l/m 4,6 km/h (1 Bft) W-NW 1,00 h 413 W/m 15,7 C 20,2 C 9,2 km/h (2 Bft)
28.08.2018 16:00 19,8 C 77 % 1018,1 hPa 0,0 l/m 3,8 km/h (1 Bft) W-NW 0,95 h 421 W/m 15,5 C 19,8 C 8,0 km/h (2 Bft)
28.08.2018 17:00 19,0 C 78 % 1017,9 hPa 0,0 l/m 0,8 km/h (0 Bft) W-NW 0,10 h 176 W/m 15,2 C 19,0 C 3,0 km/h (1 Bft)
28.08.2018 18:00 18,5 C 80 % 1017,9 hPa 0,0 l/m 0,3 km/h (0 Bft) W-NW 0,00 h 74 W/m 15,0 C 18,5 C 1,0 km/h (0 Bft)
28.08.2018 19:00 17,8 C 83 % 1017,8 hPa 0,0 l/m 0,0 km/h (0 Bft) N 0,00 h 20 W/m 15,0 C 17,8 C 0,0 km/h (0 Bft)
28.08.2018 20:00 17,3 C 85 % 1017,8 hPa 0,0 l/m 0,0 km/h (0 Bft) N 0,00 h 8 W/m 14,8 C 17,3 C 0,0 km/h (0 Bft)
28.08.2018 21:00 16,4 C 88 % 1017,7 hPa 0,0 l/m 0,0 km/h (0 Bft) N 0,00 h 0 W/m 14,3 C 16,4 C 0,0 km/h (0 Bft)
28.08.2018 22:00 15,8 C 90 % 1017,4 hPa 0,0 l/m 0,1 km/h (0 Bft) N 0,00 h 0 W/m 14,2 C 15,8 C 1,2 km/h (1 Bft)
28.08.2018 23:00 15,5 C 91 % 1017,0 hPa 0,0 l/m 0,1 km/h (0 Bft) N 0,00 h 0 W/m 14,1 C 15,5 C 1,4 km/h (1 Bft)
29.08.2018 00:00 14,9 C 91 % 1017,0 hPa 0,0 l/m 0,5 km/h (0 Bft) SW 0,00 h 0 W/m 13,5 C 14,9 C 2,1 km/h (1 Bft)
29.08.2018 01:00 14,3 C 91 % 1016,8 hPa 0,0 l/m 1,2 km/h (1 Bft) S 0,00 h 0 W/m 12,9 C 14,3 C 3,4 km/h (1 Bft)
29.08.2018 02:00 13,9 C 92 % 1016,4 hPa 0,0 l/m 0,8 km/h (0 Bft) O 0,00 h 0 W/m 12,6 C 13,9 C 3,6 km/h (1 Bft)
29.08.2018 03:00 13,7 C 93 % 1016,0 hPa 0,0 l/m 1,3 km/h (1 Bft) O 0,00 h 0 W/m 12,6 C 13,7 C 4,6 km/h (1 Bft)
29.08.2018 04:00 13,4 C 93 % 1015,9 hPa 0,0 l/m 0,6 km/h (0 Bft) O 0,00 h 0 W/m 12,3 C 13,4 C 3,0 km/h (1 Bft)
29.08.2018 05:00 13,1 C 93 % 1015,2 hPa 0,0 l/m 0,5 km/h (0 Bft) O 0,00 h 0 W/m 12,1 C 13,1 C 2,8 km/h (1 Bft)
29.08.2018 06:00 13,1 C 94 % 1014,7 hPa 0,0 l/m 1,3 km/h (1 Bft) SO 0,00 h 9 W/m 12,2 C 13,1 C 5,2 km/h (1 Bft)
29.08.2018 07:00 13,8 C 94 % 1014,6 hPa 0,0 l/m 2,4 km/h (1 Bft) O-NO 0,00 h 29 W/m 12,9 C 13,8 C 7,5 km/h (2 Bft)
29.08.2018 08:00 15,2 C 91 % 1014,0 hPa 0,0 l/m 4,1 km/h (1 Bft) O-SO 0,00 h 50 W/m 13,8 C 15,2 C 11,1 km/h (2 Bft)
29.08.2018 09:00 16,7 C 85 % 1013,3 hPa 0,0 l/m 4,1 km/h (1 Bft) O-SO 0,30 h 188 W/m 14,2 C 16,7 C 11,7 km/h (2 Bft)
29.08.2018 10:00 19,3 C 74 % 1013,5 hPa 0,0 l/m 5,1 km/h (1 Bft) S-SO 1,00 h 461 W/m 14,5 C 19,3 C 12,5 km/h (2 Bft)
29.08.2018 11:00 21,5 C 66 % 1013,1 hPa 0,0 l/m 5,1 km/h (1 Bft) SO 1,00 h 570 W/m 14,8 C 21,4 C 12,2 km/h (2 Bft)
29.08.2018 12:00 23,2 C 60 % 1012,0 hPa 0,0 l/m 4,6 km/h (1 Bft) O 1,00 h 569 W/m 15,1 C 23,2 C 12,0 km/h (2 Bft)
29.08.2018 13:00 23,9 C 61 % 1011,4 hPa 0,0 l/m 5,1 km/h (1 Bft) NO 1,00 h 623 W/m 15,8 C 23,9 C 13,5 km/h (3 Bft)
29.08.2018 14:00 24,5 C 59 % 1010,8 hPa 0,0 l/m 4,8 km/h (1 Bft) O 1,00 h 574 W/m 15,9 C 24,5 C 12,7 km/h (3 Bft)
29.08.2018 15:00 24,9 C 57 % 1010,5 hPa 0,0 l/m 3,9 km/h (1 Bft) N-NO 1,00 h 499 W/m 15,7 C 24,9 C 11,0 km/h (2 Bft)
29.08.2018 16:00 23,9 C 60 % 1010,0 hPa 0,0 l/m 2,6 km/h (1 Bft) O 0,30 h 257 W/m 15,6 C 23,9 C 8,1 km/h (2 Bft)
29.08.2018 17:00 23,5 C 63 % 1009,9 hPa 0,0 l/m 2,1 km/h (1 Bft) N-NO 0,30 h 204 W/m 15,9 C 23,5 C 6,8 km/h (2 Bft)
29.08.2018 18:00 22,3 C 68 % 1009,9 hPa 0,0 l/m 0,6 km/h (0 Bft) NO 0,05 h 80 W/m 16,1 C 22,3 C 3,4 km/h (1 Bft)
29.08.2018 19:00 21,1 C 73 % 1010,1 hPa 0,0 l/m 0,0 km/h (0 Bft) N 0,00 h 28 W/m 16,0 C 21,1 C 0,0 km/h (0 Bft)
29.08.2018 20:00 20,8 C 76 % 1010,4 hPa 0,0 l/m 0,6 km/h (0 Bft) W-NW 0,00 h 6 W/m 16,4 C 20,8 C 2,7 km/h (1 Bft)
29.08.2018 21:00 20,4 C 78 % 1011,0 hPa 0,0 l/m 8,0 km/h (2 Bft) W-NW 0,00 h 0 W/m 16,5 C 19,3 C 16,6 km/h (3 Bft)
29.08.2018 22:00 18,9 C 88 % 1011,1 hPa 0,0 l/m 11,0 km/h (2 Bft) NW 0,00 h 0 W/m 16,8 C 17,1 C 20,5 km/h (4 Bft)
29.08.2018 23:00 18,3 C 90 % 1010,6 hPa 0,0 l/m 13,9 km/h (3 Bft) N-NW 0,00 h 0 W/m 16,6 C 15,5 C 24,0 km/h (4 Bft)
30.08.2018 00:00 18,0 C 89 % 1010,8 hPa 0,0 l/m 12,9 km/h (3 Bft) NW 0,00 h 0 W/m 16,2 C 15,5 C 23,1 km/h (4 Bft)
30.08.2018 01:00 18,2 C 89 % 1010,7 hPa 0,0 l/m 13,3 km/h (3 Bft) N-NW 0,00 h 0 W/m 16,4 C 15,6 C 23,4 km/h (4 Bft)
30.08.2018 02:00 18,2 C 90 % 1010,9 hPa 0,0 l/m 14,2 km/h (3 Bft) N-NW 0,00 h 0 W/m 16,4 C 15,3 C 25,7 km/h (4 Bft)
30.08.2018 03:00 17,9 C 90 % 1011,3 hPa 0,2 l/m 14,4 km/h (3 Bft) N-NW 0,00 h 0 W/m 16,2 C 14,9 C 24,9 km/h (4 Bft)
30.08.2018 04:00 17,4 C 90 % 1011,4 hPa 0,4 l/m 13,2 km/h (3 Bft) NW 0,00 h 0 W/m 15,7 C 14,6 C 23,4 km/h (4 Bft)
30.08.2018 05:00 16,7 C 90 % 1011,4 hPa 0,8 l/m 12,5 km/h (2 Bft) N-NW 0,00 h 0 W/m 15,1 C 14,1 C 22,6 km/h (4 Bft)
30.08.2018 06:00 16,6 C 92 % 1011,5 hPa 0,2 l/m 12,0 km/h (2 Bft) NW 0,00 h 5 W/m 15,3 C 14,2 C 20,7 km/h (4 Bft)
30.08.2018 07:00 16,7 C 92 % 1011,8 hPa 0,0 l/m 8,9 km/h (2 Bft) NW 0,00 h 22 W/m 15,4 C 15,5 C 18,7 km/h (3 Bft)
30.08.2018 08:00 17,0 C 93 % 1012,0 hPa 1,0 l/m 11,1 km/h (2 Bft) NW 0,00 h 15 W/m 15,8 C 14,9 C 20,3 km/h (4 Bft)
30.08.2018 09:00 16,4 C 94 % 1012,6 hPa 2,2 l/m 10,3 km/h (2 Bft) N-NW 0,00 h 26 W/m 15,4 C 14,7 C 19,3 km/h (3 Bft)
30.08.2018 10:00 16,2 C 95 % 1013,4 hPa 2,0 l/m 11,4 km/h (2 Bft) N-NW 0,00 h 38 W/m 15,4 C 14,0 C 21,0 km/h (4 Bft)
30.08.2018 11:00 16,2 C 96 % 1014,1 hPa 0,4 l/m 12,1 km/h (2 Bft) N-NW 0,00 h 84 W/m 15,5 C 13,6 C 23,5 km/h (4 Bft)
30.08.2018 12:00 15,8 C 96 % 1014,7 hPa 0,2 l/m 16,0 km/h (3 Bft) N-NW 0,00 h 108 W/m 15,2 C 12,0 C 28,0 km/h (5 Bft)
30.08.2018 13:00 16,1 C 94 % 1015,3 hPa 0,0 l/m 19,3 km/h (3 Bft) N 0,00 h 222 W/m 15,1 C 11,4 C 32,8 km/h (5 Bft)
30.08.2018 14:00 17,2 C 82 % 1016,1 hPa 0,0 l/m 18,6 km/h (3 Bft) N-NW 0,00 h 221 W/m 14,2 C 13,0 C 32,6 km/h (5 Bft)
30.08.2018 15:00 17,7 C 75 % 1016,6 hPa 0,0 l/m 18,5 km/h (3 Bft) N-NW 0,25 h 262 W/m 13,2 C 13,6 C 31,2 km/h (5 Bft)
30.08.2018 16:00 18,1 C 71 % 1017,1 hPa 0,0 l/m 17,5 km/h (3 Bft) NW 0,45 h 320 W/m 12,9 C 14,4 C 29,6 km/h (5 Bft)
30.08.2018 17:00 18,0 C 72 % 1017,5 hPa 0,0 l/m 16,9 km/h (3 Bft) NW 0,45 h 212 W/m 12,9 C 14,4 C 28,3 km/h (5 Bft)
30.08.2018 18:00 17,5 C 71 % 1017,8 hPa 0,0 l/m 16,4 km/h (3 Bft) NW 0,25 h 125 W/m 12,2 C 13,8 C 27,9 km/h (5 Bft)
30.08.2018 19:00 17,1 C 71 % 1018,1 hPa 0,0 l/m 15,7 km/h (3 Bft) NW 0,00 h 37 W/m 11,8 C 13,5 C 27,2 km/h (5 Bft)
30.08.2018 20:00 16,4 C 73 % 1018,4 hPa 0,0 l/m 15,0 km/h (3 Bft) N-NW 0,00 h 7 W/m 11,5 C 13,0 C 26,0 km/h (4 Bft)
30.08.2018 21:00 16,2 C 74 % 1018,8 hPa 0,0 l/m 15,2 km/h (3 Bft) N-NW 0,00 h 0 W/m 11,5 C 12,6 C 27,3 km/h (5 Bft)
30.08.2018 22:00 15,9 C 74 % 1019,1 hPa 0,0 l/m 14,1 km/h (3 Bft) NW 0,00 h 0 W/m 11,3 C 12,6 C 25,3 km/h (4 Bft)
30.08.2018 23:00 15,7 C 75 % 1019,2 hPa 0,0 l/m 13,7 km/h (3 Bft) NW 0,00 h 0 W/m 11,2 C 12,5 C 22,6 km/h (4 Bft)
31.08.2018 00:00 15,7 C 76 % 1019,2 hPa 0,0 l/m 12,8 km/h (3 Bft) N-NW 0,00 h 0 W/m 11,5 C 12,9 C 22,1 km/h (4 Bft)
31.08.2018 01:00 15,5 C 74 % 1019,1 hPa 0,0 l/m 14,1 km/h (3 Bft) N 0,00 h 0 W/m 10,8 C 12,1 C 24,4 km/h (4 Bft)
31.08.2018 02:00 15,2 C 71 % 1019,0 hPa 0,0 l/m 11,7 km/h (2 Bft) N-NW 0,00 h 0 W/m 10,0 C 12,7 C 19,9 km/h (4 Bft)
31.08.2018 03:00 15,2 C 71 % 1019,0 hPa 0,0 l/m 10,5 km/h (2 Bft) N-NW 0,00 h 0 W/m 9,9 C 13,2 C 19,7 km/h (3 Bft)
31.08.2018 04:00 15,5 C 71 % 1019,0 hPa 0,0 l/m 11,4 km/h (2 Bft) N-NW 0,00 h 0 W/m 10,2 C 13,1 C 21,5 km/h (4 Bft)
31.08.2018 05:00 15,5 C 70 % 1019,0 hPa 0,0 l/m 8,9 km/h (2 Bft) NW 0,00 h 0 W/m 10,1 C 14,2 C 17,1 km/h (3 Bft)
31.08.2018 06:00 15,4 C 74 % 1019,1 hPa 0,0 l/m 9,1 km/h (2 Bft) N-NW 0,00 h 10 W/m 10,9 C 14,1 C 17,5 km/h (3 Bft)
31.08.2018 07:00 15,6 C 71 % 1019,3 hPa 0,0 l/m 12,2 km/h (2 Bft) N 0,00 h 40 W/m 10,4 C 13,0 C 22,0 km/h (4 Bft)
31.08.2018 08:00 15,9 C 68 % 1019,6 hPa 0,0 l/m 13,5 km/h (3 Bft) N-NW 0,00 h 69 W/m 10,0 C 12,8 C 22,7 km/h (4 Bft)
31.08.2018 09:00 16,3 C 66 % 1019,8 hPa 0,0 l/m 11,2 km/h (2 Bft) N-NW 0,25 h 174 W/m 10,0 C 14,1 C 19,9 km/h (4 Bft)
31.08.2018 10:00 17,7 C 64 % 1020,0 hPa 0,0 l/m 11,0 km/h (2 Bft) N-NW 0,90 h 470 W/m 10,7 C 15,8 C 19,6 km/h (3 Bft)
31.08.2018 11:00 18,8 C 62 % 1020,2 hPa 0,0 l/m 12,4 km/h (2 Bft) N-NW 0,95 h 589 W/m 11,2 C 16,5 C 22,2 km/h (4 Bft)
31.08.2018 12:00 19,4 C 62 % 1020,3 hPa 0,0 l/m 12,5 km/h (2 Bft) NW 0,85 h 552 W/m 11,8 C 17,2 C 21,4 km/h (4 Bft)
31.08.2018 13:00 19,6 C 63 % 1020,3 hPa 0,0 l/m 12,8 km/h (3 Bft) N 0,90 h 573 W/m 12,4 C 17,4 C 22,3 km/h (4 Bft)
31.08.2018 14:00 20,0 C 64 % 1020,4 hPa 0,0 l/m 12,1 km/h (2 Bft) N-NW 1,00 h 614 W/m 12,9 C 18,0 C 21,7 km/h (4 Bft)
31.08.2018 15:00 20,1 C 64 % 1020,4 hPa 0,0 l/m 11,7 km/h (2 Bft) N-NW 0,95 h 567 W/m 12,9 C 18,2 C 20,7 km/h (4 Bft)
31.08.2018 16:00 19,4 C 64 % 1020,5 hPa 0,0 l/m 9,8 km/h (2 Bft) NW 1,00 h 468 W/m 12,4 C 18,1 C 18,2 km/h (3 Bft)
31.08.2018 17:00 18,8 C 66 % 1020,6 hPa 0,0 l/m 9,6 km/h (2 Bft) NW 1,00 h 329 W/m 12,3 C 17,5 C 17,9 km/h (3 Bft)
31.08.2018 18:00 18,0 C 69 % 1020,6 hPa 0,0 l/m 8,9 km/h (2 Bft) NW 0,80 h 168 W/m 12,2 C 16,9 C 18,2 km/h (3 Bft)
31.08.2018 19:00 17,3 C 74 % 1020,8 hPa 0,0 l/m 8,7 km/h (2 Bft) NW 0,00 h 31 W/m 12,6 C 16,2 C 17,1 km/h (3 Bft)
31.08.2018 20:00 16,7 C 78 % 1021,2 hPa 0,0 l/m 8,6 km/h (2 Bft) NW 0,00 h 8 W/m 12,8 C 15,6 C 16,4 km/h (3 Bft)
31.08.2018 21:00 16,4 C 82 % 1021,4 hPa 0,0 l/m 7,1 km/h (2 Bft) NW 0,00 h 0 W/m 13,3 C 15,9 C 15,2 km/h (3 Bft)
31.08.2018 22:00 16,4 C 84 % 1021,4 hPa 0,0 l/m 7,9 km/h (2 Bft) NW 0,00 h 0 W/m 13,7 C 15,5 C 15,5 km/h (3 Bft)
31.08.2018 23:00 16,5 C 84 % 1021,6 hPa 0,0 l/m 7,4 km/h (2 Bft) NW 0,00 h 0 W/m 13,8 C 15,9 C 13,2 km/h (3 Bft)
01.09.2018 00:00 16,1 C 85 % 1021,7 hPa 0,0 l/m 5,7 km/h (2 Bft) NW 0,00 h 0 W/m 13,6 C 16,1 C 10,9 km/h (2 Bft)
01.09.2018 01:00 16,1 C 85 % 1021,9 hPa 0,0 l/m 4,2 km/h (1 Bft) NW 0,00 h 0 W/m 13,6 C 16,1 C 8,7 km/h (2 Bft)
01.09.2018 02:00 16,0 C 86 % 1021,9 hPa 0,0 l/m 7,2 km/h (2 Bft) NW 0,00 h 0 W/m 13,6 C 15,4 C 13,5 km/h (3 Bft)
01.09.2018 03:00 16,2 C 84 % 1021,9 hPa 0,0 l/m 8,7 km/h (2 Bft) N-NW 0,00 h 0 W/m 13,5 C 15,0 C 17,1 km/h (3 Bft)
01.09.2018 04:00 16,2 C 84 % 1022,1 hPa 0,0 l/m 9,2 km/h (2 Bft) N-NW 0,00 h 0 W/m 13,5 C 14,8 C 16,8 km/h (3 Bft)
01.09.2018 05:00 16,2 C 83 % 1022,5 hPa 0,0 l/m 9,0 km/h (2 Bft) N-NW 0,00 h 0 W/m 13,3 C 15,0 C 16,8 km/h (3 Bft)
01.09.2018 06:00 16,1 C 83 % 1022,7 hPa 0,0 l/m 7,6 km/h (2 Bft) N-NW 0,00 h 9 W/m 13,2 C 15,4 C 15,2 km/h (3 Bft)
01.09.2018 07:00 16,1 C 83 % 1023,0 hPa 0,0 l/m 7,2 km/h (2 Bft) N-NW 0,00 h 31 W/m 13,3 C 15,6 C 13,9 km/h (3 Bft)
01.09.2018 08:00 16,5 C 82 % 1023,7 hPa 0,0 l/m 7,8 km/h (2 Bft) N-NW 0,00 h 68 W/m 13,3 C 15,8 C 14,8 km/h (3 Bft)
01.09.2018 09:00 17,0 C 81 % 1024,2 hPa 0,0 l/m 5,4 km/h (1 Bft) N-NW 0,20 h 167 W/m 13,7 C 17,0 C 11,5 km/h (2 Bft)
01.09.2018 10:00 18,1 C 77 % 1024,8 hPa 0,0 l/m 5,6 km/h (2 Bft) NW 0,50 h 327 W/m 14,0 C 17,9 C 12,8 km/h (3 Bft)
01.09.2018 11:00 19,1 C 73 % 1025,3 hPa 0,0 l/m 5,4 km/h (2 Bft) NW 0,80 h 546 W/m 14,1 C 18,9 C 10,6 km/h (2 Bft)
01.09.2018 12:00 20,1 C 69 % 1025,3 hPa 0,0 l/m 5,3 km/h (1 Bft) N-NW 0,95 h 589 W/m 14,3 C 20,0 C 12,4 km/h (2 Bft)
01.09.2018 13:00 20,7 C 65 % 1025,5 hPa 0,0 l/m 5,7 km/h (2 Bft) N-NW 1,00 h 692 W/m 13,8 C 20,6 C 12,4 km/h (2 Bft)
01.09.2018 14:00 20,9 C 65 % 1025,6 hPa 0,0 l/m 7,6 km/h (2 Bft) N 1,00 h 609 W/m 14,0 C 20,4 C 15,1 km/h (3 Bft)
01.09.2018 15:00 20,8 C 66 % 1025,7 hPa 0,0 l/m 8,9 km/h (2 Bft) N-NW 1,00 h 580 W/m 14,2 C 19,8 C 16,6 km/h (3 Bft)
01.09.2018 16:00 20,2 C 67 % 1025,7 hPa 0,0 l/m 11,6 km/h (2 Bft) N-NW 1,00 h 471 W/m 14,0 C 18,4 C 19,6 km/h (3 Bft)
01.09.2018 17:00 19,7 C 69 % 1025,8 hPa 0,0 l/m 11,4 km/h (2 Bft) NW 1,00 h 334 W/m 13,8 C 17,9 C 19,2 km/h (3 Bft)
01.09.2018 18:00 19,0 C 71 % 1026,0 hPa 0,0 l/m 8,7 km/h (2 Bft) NW 0,95 h 171 W/m 13,6 C 18,0 C 17,3 km/h (3 Bft)
01.09.2018 19:00 17,9 C 76 % 1026,0 hPa 0,0 l/m 6,2 km/h (2 Bft) N-NW 0,00 h 23 W/m 13,5 C 17,7 C 12,7 km/h (3 Bft)
01.09.2018 20:00 16,8 C 81 % 1026,3 hPa 0,0 l/m 5,4 km/h (2 Bft) N-NW 0,05 h 7 W/m 13,5 C 16,8 C 11,0 km/h (2 Bft)
01.09.2018 21:00 15,9 C 84 % 1026,5 hPa 0,0 l/m 2,8 km/h (1 Bft) N 0,00 h 0 W/m 13,2 C 15,9 C 6,3 km/h (2 Bft)
01.09.2018 22:00 15,2 C 88 % 1026,7 hPa 0,0 l/m 2,1 km/h (1 Bft) N 0,00 h 0 W/m 13,2 C 15,2 C 5,4 km/h (1 Bft)
01.09.2018 23:00 14,8 C 90 % 1026,9 hPa 0,0 l/m 1,9 km/h (1 Bft) N 0,00 h 0 W/m 13,1 C 14,8 C 4,5 km/h (1 Bft)
02.09.2018 00:00 14,2 C 91 % 1027,0 hPa 0,0 l/m 0,5 km/h (0 Bft) N 0,00 h 0 W/m 12,8 C 14,2 C 2,2 km/h (1 Bft)
02.09.2018 01:00 13,7 C 92 % 1027,0 hPa 0,0 l/m 0,1 km/h (0 Bft) N 0,00 h 0 W/m 12,4 C 13,7 C 1,7 km/h (1 Bft)
02.09.2018 02:00 13,3 C 93 % 1027,0 hPa 0,0 l/m 0,0 km/h (0 Bft) N 0,00 h 0 W/m 12,2 C 13,3 C 0,2 km/h (0 Bft)
02.09.2018 03:00 12,5 C 92 % 1027,0 hPa 0,0 l/m 0,0 km/h (0 Bft) N 0,00 h 0 W/m 11,2 C 12,5 C 0,0 km/h (0 Bft)
02.09.2018 04:00 11,6 C 92 % 1027,1 hPa 0,0 l/m 0,0 km/h (0 Bft) N 0,00 h 0 W/m 10,3 C 11,6 C 0,0 km/h (0 Bft)
02.09.2018 05:00 11,0 C 92 % 1027,0 hPa 0,0 l/m 0,0 km/h (0 Bft) N 0,00 h 0 W/m 9,7 C 11,0 C 0,0 km/h (0 Bft)
02.09.2018 06:00 10,6 C 92 % 1027,0 hPa 0,0 l/m 0,0 km/h (0 Bft) N 0,00 h 7 W/m 9,4 C 10,6 C 0,3 km/h (0 Bft)
02.09.2018 07:00 10,5 C 93 % 1027,0 hPa 0,0 l/m 0,0 km/h (0 Bft) N 0,00 h 20 W/m 9,4 C 10,5 C 0,0 km/h (0 Bft)
02.09.2018 08:00 12,6 C 95 % 1027,0 hPa 0,0 l/m 0,0 km/h (0 Bft) N 0,00 h 38 W/m 11,8 C 12,6 C 0,0 km/h (0 Bft)
02.09.2018 09:00 15,1 C 93 % 1027,1 hPa 0,0 l/m 1,3 km/h (1 Bft) N-NO 0,20 h 132 W/m 14,0 C 15,1 C 4,0 km/h (1 Bft)
02.09.2018 10:00 17,6 C 80 % 1027,1 hPa 0,0 l/m 2,4 km/h (1 Bft) O-NO 1,00 h 472 W/m 14,1 C 17,6 C 6,9 km/h (2 Bft)
02.09.2018 11:00 19,1 C 73 % 1027,0 hPa 0,0 l/m 3,2 km/h (1 Bft) NO 1,00 h 578 W/m 14,2 C 19,1 C 8,1 km/h (2 Bft)
02.09.2018 12:00 20,5 C 69 % 1026,5 hPa 0,0 l/m 3,6 km/h (1 Bft) N-NO 1,00 h 578 W/m 14,6 C 20,5 C 8,4 km/h (2 Bft)
02.09.2018 13:00 21,4 C 65 % 1025,9 hPa 0,0 l/m 4,5 km/h (1 Bft) O-NO 1,00 h 670 W/m 14,5 C 21,4 C 10,7 km/h (2 Bft)
02.09.2018 14:00 22,2 C 62 % 1025,4 hPa 0,0 l/m 4,0 km/h (1 Bft) N-NW 0,95 h 588 W/m 14,5 C 22,2 C 10,1 km/h (2 Bft)
02.09.2018 15:00 22,5 C 60 % 1024,9 hPa 0,0 l/m 4,4 km/h (1 Bft) N-NO 1,00 h 575 W/m 14,4 C 22,4 C 10,8 km/h (2 Bft)
02.09.2018 16:00 22,6 C 63 % 1024,3 hPa 0,0 l/m 4,0 km/h (1 Bft) N 0,90 h 420 W/m 15,1 C 22,5 C 10,2 km/h (2 Bft)
02.09.2018 17:00 21,7 C 71 % 1023,7 hPa 0,0 l/m 6,2 km/h (2 Bft) N 1,00 h 319 W/m 16,2 C 21,4 C 13,4 km/h (3 Bft)
02.09.2018 18:00 21,2 C 67 % 1023,2 hPa 0,0 l/m 2,4 km/h (1 Bft) NO 0,90 h 157 W/m 14,8 C 21,2 C 7,1 km/h (2 Bft)
02.09.2018 19:00 19,8 C 74 % 1022,8 hPa 0,0 l/m 1,7 km/h (1 Bft) N-NO 0,00 h 19 W/m 14,9 C 19,8 C 5,6 km/h (2 Bft)
02.09.2018 20:00 18,5 C 83 % 1022,8 hPa 0,0 l/m 1,8 km/h (1 Bft) N-NO 0,00 h 5 W/m 15,6 C 18,5 C 5,9 km/h (2 Bft)
02.09.2018 21:00 18,2 C 86 % 1023,0 hPa 0,0 l/m 2,2 km/h (1 Bft) N-NO 0,00 h 0 W/m 15,8 C 18,2 C 7,0 km/h (2 Bft)
02.09.2018 22:00 17,7 C 88 % 1022,8 hPa 0,0 l/m 1,7 km/h (1 Bft) NO 0,00 h 0 W/m 15,6 C 17,7 C 5,5 km/h (2 Bft)
02.09.2018 23:00 17,1 C 90 % 1022,6 hPa 0,0 l/m 1,6 km/h (1 Bft) O 0,00 h 0 W/m 15,4 C 17,1 C 5,1 km/h (1 Bft)
Min-Datum _ 02.09.18 29.08.18 27.08.18 - 28.08.18 - - - 27.08.18 27.08.18 28.08.18
_ Min-Zeit 06:51 15:30 08:48 - 17:21 - - - 01:06 06:24 17:21
Minimum _ 10,4 C 53 % 1002,7 hPa - 0,0 km/h (0 Bft) - - - 8,7 C 7,4 C 0,0 km/h (0 Bft)
Max-Datum _ 29.08.18 27.08.18 02.09.18 30.08.18 30.08.18 - 27.08.18 31.08.18 29.08.18 29.08.18 30.08.18
_ Max-Zeit 15:18 10:24 09:36 09:48 13:30 - 11:30 13:18 21:30 15:18 13:30
Maximum _ 25,2 C 96 % 1027,2 hPa 2,2 l/m 23,6 km/h
N (4 Bft)
- 0,05 h 889 W/m 17,0 C 25,2 C 41,8 km/h
N-NW (6 Bft)
Durchschnitt _ 17,2 C 80 % 1017,2 hPa #11,6 l/m 8,1 km/h (2 Bft) N-NW #40:15 h 241 W/m 13,6 C 15,8 C 15,3 km/h (3 Bft)
2018 Cux-Wetter.de -Die Nutzung der Wetterdaten nur mit ausdrcklicher Genehmigung